sensor_id;sensor_type;location;lat;lon;timestamp;pressure;altitude;pressure_sealevel;temperature;humidity
78857;BME280;68207;50.078;19.936;2023-04-15T00:01:46;97732.52;;;11.23;61.39
78857;BME280;68207;50.078;19.936;2023-04-15T00:04:12;97738.73;;;11.22;61.22
78857;BME280;68207;50.078;19.936;2023-04-15T00:06:37;97740.25;;;11.20;61.00
78857;BME280;68207;50.078;19.936;2023-04-15T00:09:04;97742.65;;;11.16;60.96
78857;BME280;68207;50.078;19.936;2023-04-15T00:11:29;97753.84;;;11.17;60.67
78857;BME280;68207;50.078;19.936;2023-04-15T00:13:55;97754.29;;;11.15;60.77
78857;BME280;68207;50.078;19.936;2023-04-15T00:16:20;97759.75;;;11.14;60.67
78857;BME280;68207;50.078;19.936;2023-04-15T00:18:46;97757.51;;;11.12;60.74
78857;BME280;68207;50.078;19.936;2023-04-15T00:21:11;97755.15;;;11.10;60.93
78857;BME280;68207;50.078;19.936;2023-04-15T00:23:36;97755.64;;;11.08;60.94
78857;BME280;68207;50.078;19.936;2023-04-15T00:26:01;97759.27;;;11.06;61.09
78857;BME280;68207;50.078;19.936;2023-04-15T00:28:27;97762.45;;;11.03;60.98
78857;BME280;68207;50.078;19.936;2023-04-15T00:30:52;97764.33;;;11.01;60.80
78857;BME280;68207;50.078;19.936;2023-04-15T00:33:17;97756.01;;;10.97;60.81
78857;BME280;68207;50.078;19.936;2023-04-15T00:35:43;97753.73;;;10.95;60.65
78857;BME280;68207;50.078;19.936;2023-04-15T00:38:08;97747.36;;;10.94;60.54
78857;BME280;68207;50.078;19.936;2023-04-15T00:40:34;97746.04;;;10.93;60.60
78857;BME280;68207;50.078;19.936;2023-04-15T00:42:59;97749.60;;;10.93;60.73
78857;BME280;68207;50.078;19.936;2023-04-15T00:45:25;97745.32;;;10.92;60.89
78857;BME280;68207;50.078;19.936;2023-04-15T00:47:52;97745.64;;;10.92;61.05
78857;BME280;68207;50.078;19.936;2023-04-15T00:50:17;97739.40;;;10.91;60.90
78857;BME280;68207;50.078;19.936;2023-04-15T00:52:43;97735.25;;;10.91;60.94
78857;BME280;68207;50.078;19.936;2023-04-15T00:55:09;97732.84;;;10.91;60.85
78857;BME280;68207;50.078;19.936;2023-04-15T00:57:35;97729.74;;;10.90;60.88
78857;BME280;68207;50.078;19.936;2023-04-15T01:00:01;97729.32;;;10.89;60.78
78857;BME280;68207;50.078;19.936;2023-04-15T01:02:30;97739.58;;;10.88;60.65
78857;BME280;68207;50.078;19.936;2023-04-15T01:04:55;97743.98;;;10.85;60.85
78857;BME280;68207;50.078;19.936;2023-04-15T01:07:21;97749.96;;;10.83;60.53
78857;BME280;68207;50.078;19.936;2023-04-15T01:09:46;97750.54;;;10.80;60.87
78857;BME280;68207;50.078;19.936;2023-04-15T01:12:13;97752.11;;;10.77;60.73
78857;BME280;68207;50.078;19.936;2023-04-15T01:14:40;97751.77;;;10.75;60.72
78857;BME280;68207;50.078;19.936;2023-04-15T01:17:05;97744.62;;;10.72;60.76
78857;BME280;68207;50.078;19.936;2023-04-15T01:19:31;97747.27;;;10.71;60.83
78857;BME280;68207;50.078;19.936;2023-04-15T01:21:57;97745.42;;;10.69;60.50
78857;BME280;68207;50.078;19.936;2023-04-15T01:24:22;97748.90;;;10.67;60.65
78857;BME280;68207;50.078;19.936;2023-04-15T01:26:48;97740.65;;;10.65;60.84
78857;BME280;68207;50.078;19.936;2023-04-15T01:29:14;97749.79;;;10.63;60.84
78857;BME280;68207;50.078;19.936;2023-04-15T01:31:40;97769.60;;;10.61;60.89
78857;BME280;68207;50.078;19.936;2023-04-15T01:34:05;97779.25;;;10.60;60.92
78857;BME280;68207;50.078;19.936;2023-04-15T01:36:31;97783.69;;;10.56;60.72
78857;BME280;68207;50.078;19.936;2023-04-15T01:38:57;97781.27;;;10.54;60.66
78857;BME280;68207;50.078;19.936;2023-04-15T01:41:26;97772.92;;;10.52;60.62
78857;BME280;68207;50.078;19.936;2023-04-15T01:43:51;97769.94;;;10.51;60.79
78857;BME280;68207;50.078;19.936;2023-04-15T01:46:17;97763.78;;;10.49;60.58
78857;BME280;68207;50.078;19.936;2023-04-15T01:48:42;97763.91;;;10.48;60.64
78857;BME280;68207;50.078;19.936;2023-04-15T01:51:07;97763.79;;;10.48;60.72
78857;BME280;68207;50.078;19.936;2023-04-15T01:53:33;97763.13;;;10.46;60.76
78857;BME280;68207;50.078;19.936;2023-04-15T01:55:58;97766.55;;;10.46;60.87
78857;BME280;68207;50.078;19.936;2023-04-15T01:58:23;97759.24;;;10.45;61.05
78857;BME280;68207;50.078;19.936;2023-04-15T02:00:49;97762.64;;;10.43;61.01
78857;BME280;68207;50.078;19.936;2023-04-15T02:03:14;97765.36;;;10.41;61.13
78857;BME280;68207;50.078;19.936;2023-04-15T02:05:39;97774.89;;;10.40;61.29
78857;BME280;68207;50.078;19.936;2023-04-15T02:08:04;97783.25;;;10.38;61.23
78857;BME280;68207;50.078;19.936;2023-04-15T02:10:30;97791.80;;;10.37;61.33
78857;BME280;68207;50.078;19.936;2023-04-15T02:12:55;97790.14;;;10.33;61.36
78857;BME280;68207;50.078;19.936;2023-04-15T02:15:21;97792.66;;;10.31;61.23
78857;BME280;68207;50.078;19.936;2023-04-15T02:17:47;97791.89;;;10.28;61.25
78857;BME280;68207;50.078;19.936;2023-04-15T02:20:15;97790.09;;;10.25;61.30
78857;BME280;68207;50.078;19.936;2023-04-15T02:22:41;97793.58;;;10.23;61.41
78857;BME280;68207;50.078;19.936;2023-04-15T02:25:07;97794.02;;;10.21;61.51
78857;BME280;68207;50.078;19.936;2023-04-15T02:27:32;97795.55;;;10.19;61.53
78857;BME280;68207;50.078;19.936;2023-04-15T02:29:58;97800.15;;;10.16;61.68
78857;BME280;68207;50.078;19.936;2023-04-15T02:32:23;97807.85;;;10.13;61.65
78857;BME280;68207;50.078;19.936;2023-04-15T02:34:48;97812.62;;;10.10;61.60
78857;BME280;68207;50.078;19.936;2023-04-15T02:37:13;97814.94;;;10.11;61.67
78857;BME280;68207;50.078;19.936;2023-04-15T02:39:39;97814.77;;;10.14;61.71
78857;BME280;68207;50.078;19.936;2023-04-15T02:42:04;97814.31;;;10.16;61.78
78857;BME280;68207;50.078;19.936;2023-04-15T02:44:30;97809.21;;;10.15;61.76
78857;BME280;68207;50.078;19.936;2023-04-15T02:46:57;97811.97;;;10.16;61.90
78857;BME280;68207;50.078;19.936;2023-04-15T02:49:22;97807.58;;;10.16;61.89
78857;BME280;68207;50.078;19.936;2023-04-15T02:51:48;97808.23;;;10.14;61.52
78857;BME280;68207;50.078;19.936;2023-04-15T02:54:21;97807.13;;;10.13;61.89
78857;BME280;68207;50.078;19.936;2023-04-15T02:56:50;97804.09;;;10.12;62.00
78857;BME280;68207;50.078;19.936;2023-04-15T02:59:16;97805.48;;;10.10;61.75
78857;BME280;68207;50.078;19.936;2023-04-15T03:01:41;97804.41;;;10.07;61.77
78857;BME280;68207;50.078;19.936;2023-04-15T03:04:06;97807.26;;;10.05;61.73
78857;BME280;68207;50.078;19.936;2023-04-15T03:06:33;97813.35;;;10.05;61.97
78857;BME280;68207;50.078;19.936;2023-04-15T03:08:58;97814.57;;;10.02;61.90
78857;BME280;68207;50.078;19.936;2023-04-15T03:11:25;97814.95;;;9.99;61.92
78857;BME280;68207;50.078;19.936;2023-04-15T03:13:51;97817.52;;;9.96;61.92
78857;BME280;68207;50.078;19.936;2023-04-15T03:16:16;97818.31;;;9.92;62.01
78857;BME280;68207;50.078;19.936;2023-04-15T03:18:42;97824.40;;;9.90;62.12
78857;BME280;68207;50.078;19.936;2023-04-15T03:21:07;97827.48;;;9.90;62.07
78857;BME280;68207;50.078;19.936;2023-04-15T03:23:33;97827.64;;;9.87;62.08
78857;BME280;68207;50.078;19.936;2023-04-15T03:26:01;97829.49;;;9.85;62.12
78857;BME280;68207;50.078;19.936;2023-04-15T03:28:26;97832.63;;;9.81;62.17
78857;BME280;68207;50.078;19.936;2023-04-15T03:30:51;97836.43;;;9.78;62.46
78857;BME280;68207;50.078;19.936;2023-04-15T03:33:17;97838.52;;;9.74;62.63
78857;BME280;68207;50.078;19.936;2023-04-15T03:35:42;97835.30;;;9.70;62.71
78857;BME280;68207;50.078;19.936;2023-04-15T03:38:07;97837.39;;;9.68;62.64
78857;BME280;68207;50.078;19.936;2023-04-15T03:40:33;97835.88;;;9.70;62.66
78857;BME280;68207;50.078;19.936;2023-04-15T03:42:58;97833.26;;;9.73;62.57
78857;BME280;68207;50.078;19.936;2023-04-15T03:45:24;97837.08;;;9.74;62.54
78857;BME280;68207;50.078;19.936;2023-04-15T03:47:49;97845.92;;;9.75;62.67
78857;BME280;68207;50.078;19.936;2023-04-15T03:50:15;97852.16;;;9.76;62.75
78857;BME280;68207;50.078;19.936;2023-04-15T03:52:40;97856.10;;;9.76;62.61
78857;BME280;68207;50.078;19.936;2023-04-15T03:55:06;97853.23;;;9.76;62.68
78857;BME280;68207;50.078;19.936;2023-04-15T03:57:32;97854.94;;;9.77;62.62
78857;BME280;68207;50.078;19.936;2023-04-15T04:00:02;97860.45;;;9.77;62.69
78857;BME280;68207;50.078;19.936;2023-04-15T04:02:28;97869.45;;;9.73;62.98
78857;BME280;68207;50.078;19.936;2023-04-15T04:04:53;97879.14;;;9.72;63.14
78857;BME280;68207;50.078;19.936;2023-04-15T04:07:18;97884.80;;;9.68;63.63
78857;BME280;68207;50.078;19.936;2023-04-15T04:09:43;97885.55;;;9.64;63.80
78857;BME280;68207;50.078;19.936;2023-04-15T04:12:09;97890.71;;;9.63;64.02
78857;BME280;68207;50.078;19.936;2023-04-15T04:14:34;97889.38;;;9.61;64.17
78857;BME280;68207;50.078;19.936;2023-04-15T04:17:00;97886.70;;;9.59;64.12
78857;BME280;68207;50.078;19.936;2023-04-15T04:19:25;97885.92;;;9.55;64.50
78857;BME280;68207;50.078;19.936;2023-04-15T04:21:51;97885.39;;;9.55;64.71
78857;BME280;68207;50.078;19.936;2023-04-15T04:24:17;97887.95;;;9.58;64.89
78857;BME280;68207;50.078;19.936;2023-04-15T04:26:42;97889.84;;;9.60;64.71
78857;BME280;68207;50.078;19.936;2023-04-15T04:29:07;97888.09;;;9.63;64.91
78857;BME280;68207;50.078;19.936;2023-04-15T04:31:32;97889.17;;;9.65;64.92
78857;BME280;68207;50.078;19.936;2023-04-15T04:33:58;97892.40;;;9.66;65.00
78857;BME280;68207;50.078;19.936;2023-04-15T04:36:23;97892.10;;;9.64;65.19
78857;BME280;68207;50.078;19.936;2023-04-15T04:38:48;97893.83;;;9.65;65.23
78857;BME280;68207;50.078;19.936;2023-04-15T04:41:14;97897.20;;;9.66;65.42
78857;BME280;68207;50.078;19.936;2023-04-15T04:43:39;97896.06;;;9.66;65.50
78857;BME280;68207;50.078;19.936;2023-04-15T04:46:04;97890.54;;;9.67;65.53
78857;BME280;68207;50.078;19.936;2023-04-15T04:48:29;97889.73;;;9.68;65.65
78857;BME280;68207;50.078;19.936;2023-04-15T04:50:55;97894.14;;;9.69;65.84
78857;BME280;68207;50.078;19.936;2023-04-15T04:53:20;97894.58;;;9.70;65.67
78857;BME280;68207;50.078;19.936;2023-04-15T04:55:46;97898.48;;;9.74;65.85
78857;BME280;68207;50.078;19.936;2023-04-15T04:58:11;97902.18;;;9.80;65.77
78857;BME280;68207;50.078;19.936;2023-04-15T05:00:36;97903.25;;;9.85;65.94
78857;BME280;68207;50.078;19.936;2023-04-15T05:03:02;97906.54;;;9.90;65.89
78857;BME280;68207;50.078;19.936;2023-04-15T05:05:28;97903.52;;;9.94;65.89
78857;BME280;68207;50.078;19.936;2023-04-15T05:07:53;97903.27;;;10.00;65.83
78857;BME280;68207;50.078;19.936;2023-04-15T05:10:18;97903.09;;;10.06;65.74
78857;BME280;68207;50.078;19.936;2023-04-15T05:12:43;97902.27;;;10.11;65.69
78857;BME280;68207;50.078;19.936;2023-04-15T05:15:09;97906.36;;;10.16;65.47
78857;BME280;68207;50.078;19.936;2023-04-15T05:17:34;97908.50;;;10.20;65.46
78857;BME280;68207;50.078;19.936;2023-04-15T05:20:01;97918.02;;;10.25;65.45
78857;BME280;68207;50.078;19.936;2023-04-15T05:22:26;97917.26;;;10.28;65.64
78857;BME280;68207;50.078;19.936;2023-04-15T05:24:51;97923.11;;;10.30;65.52
78857;BME280;68207;50.078;19.936;2023-04-15T05:27:17;97930.41;;;10.34;65.33
78857;BME280;68207;50.078;19.936;2023-04-15T05:29:43;97932.07;;;10.40;65.11
78857;BME280;68207;50.078;19.936;2023-04-15T05:32:08;97929.42;;;10.47;65.20
78857;BME280;68207;50.078;19.936;2023-04-15T05:34:34;97931.98;;;10.56;65.01
78857;BME280;68207;50.078;19.936;2023-04-15T05:36:59;97935.14;;;10.69;64.95
78857;BME280;68207;50.078;19.936;2023-04-15T05:39:25;97938.66;;;10.84;64.82
78857;BME280;68207;50.078;19.936;2023-04-15T05:41:50;97943.52;;;10.97;64.67
78857;BME280;68207;50.078;19.936;2023-04-15T05:44:16;97940.25;;;11.09;64.04
78857;BME280;68207;50.078;19.936;2023-04-15T05:46:41;97940.80;;;11.17;63.86
78857;BME280;68207;50.078;19.936;2023-04-15T05:49:07;97933.30;;;11.21;63.57
78857;BME280;68207;50.078;19.936;2023-04-15T05:51:32;97936.45;;;11.25;63.35
78857;BME280;68207;50.078;19.936;2023-04-15T05:53:57;97936.58;;;11.29;62.97
78857;BME280;68207;50.078;19.936;2023-04-15T05:56:23;97935.73;;;11.39;62.97
78857;BME280;68207;50.078;19.936;2023-04-15T05:58:50;97938.08;;;11.50;62.80
78857;BME280;68207;50.078;19.936;2023-04-15T06:01:16;97934.81;;;11.64;62.56
78857;BME280;68207;50.078;19.936;2023-04-15T06:03:41;97932.52;;;11.79;61.90
78857;BME280;68207;50.078;19.936;2023-04-15T06:06:07;97936.48;;;11.93;61.40
78857;BME280;68207;50.078;19.936;2023-04-15T06:08:32;97942.02;;;12.03;61.19
78857;BME280;68207;50.078;19.936;2023-04-15T06:10:58;97944.54;;;12.12;60.59
78857;BME280;68207;50.078;19.936;2023-04-15T06:13:23;97948.94;;;12.20;59.84
78857;BME280;68207;50.078;19.936;2023-04-15T06:15:49;97949.17;;;12.24;59.43
78857;BME280;68207;50.078;19.936;2023-04-15T06:18:14;97952.84;;;12.30;59.25
78857;BME280;68207;50.078;19.936;2023-04-15T06:20:39;97959.70;;;12.35;59.14
78857;BME280;68207;50.078;19.936;2023-04-15T06:23:05;97960.92;;;12.40;59.23
78857;BME280;68207;50.078;19.936;2023-04-15T06:25:31;97960.65;;;12.44;59.02
78857;BME280;68207;50.078;19.936;2023-04-15T06:27:56;97965.48;;;12.48;58.83
78857;BME280;68207;50.078;19.936;2023-04-15T06:30:21;97962.29;;;12.51;58.82
78857;BME280;68207;50.078;19.936;2023-04-15T06:32:46;97963.52;;;12.59;59.00
78857;BME280;68207;50.078;19.936;2023-04-15T06:35:12;97962.09;;;12.71;58.75
78857;BME280;68207;50.078;19.936;2023-04-15T06:37:37;97964.64;;;12.81;58.69
78857;BME280;68207;50.078;19.936;2023-04-15T06:40:04;97963.88;;;12.88;58.62
78857;BME280;68207;50.078;19.936;2023-04-15T06:42:29;97966.02;;;12.94;58.47
78857;BME280;68207;50.078;19.936;2023-04-15T06:44:55;97967.75;;;12.99;58.23
78857;BME280;68207;50.078;19.936;2023-04-15T06:47:20;97967.86;;;13.03;58.30
78857;BME280;68207;50.078;19.936;2023-04-15T06:49:46;97970.17;;;13.04;58.05
78857;BME280;68207;50.078;19.936;2023-04-15T06:52:11;97972.83;;;13.04;57.74
78857;BME280;68207;50.078;19.936;2023-04-15T06:54:37;97976.60;;;13.04;57.66
78857;BME280;68207;50.078;19.936;2023-04-15T06:57:02;97981.10;;;13.08;57.60
78857;BME280;68207;50.078;19.936;2023-04-15T06:59:27;97982.86;;;13.12;57.30
78857;BME280;68207;50.078;19.936;2023-04-15T07:01:53;97983.88;;;13.14;57.27
78857;BME280;68207;50.078;19.936;2023-04-15T07:04:18;97986.02;;;13.18;57.11
78857;BME280;68207;50.078;19.936;2023-04-15T07:06:44;97988.77;;;13.24;57.18
78857;BME280;68207;50.078;19.936;2023-04-15T07:09:10;97989.36;;;13.30;57.21
78857;BME280;68207;50.078;19.936;2023-04-15T07:11:35;97991.44;;;13.39;56.80
78857;BME280;68207;50.078;19.936;2023-04-15T07:14:01;97992.09;;;13.48;56.62
78857;BME280;68207;50.078;19.936;2023-04-15T07:16:26;97989.82;;;13.58;56.40
78857;BME280;68207;50.078;19.936;2023-04-15T07:18:51;97990.94;;;13.65;56.47
78857;BME280;68207;50.078;19.936;2023-04-15T07:21:16;97996.27;;;13.70;56.20
78857;BME280;68207;50.078;19.936;2023-04-15T07:23:42;97996.77;;;13.75;56.18
78857;BME280;68207;50.078;19.936;2023-04-15T07:26:07;97996.72;;;13.84;55.93
78857;BME280;68207;50.078;19.936;2023-04-15T07:28:33;97995.91;;;13.93;55.78
78857;BME280;68207;50.078;19.936;2023-04-15T07:30:58;97996.52;;;14.02;55.57
78857;BME280;68207;50.078;19.936;2023-04-15T07:33:23;98003.14;;;14.11;55.44
78857;BME280;68207;50.078;19.936;2023-04-15T07:35:49;97999.05;;;14.18;55.15
78857;BME280;68207;50.078;19.936;2023-04-15T07:38:14;98004.77;;;14.26;54.97
78857;BME280;68207;50.078;19.936;2023-04-15T07:40:40;98007.61;;;14.36;54.74
78857;BME280;68207;50.078;19.936;2023-04-15T07:43:06;98008.98;;;14.45;54.36
78857;BME280;68207;50.078;19.936;2023-04-15T07:45:32;98015.77;;;14.59;54.23
78857;BME280;68207;50.078;19.936;2023-04-15T07:47:57;98015.63;;;14.74;53.89
78857;BME280;68207;50.078;19.936;2023-04-15T07:50:23;98019.30;;;14.93;53.37
78857;BME280;68207;50.078;19.936;2023-04-15T07:52:49;98019.47;;;15.10;53.21
78857;BME280;68207;50.078;19.936;2023-04-15T07:55:16;98017.16;;;15.30;52.62
78857;BME280;68207;50.078;19.936;2023-04-15T07:57:44;98021.27;;;15.46;51.65
78857;BME280;68207;50.078;19.936;2023-04-15T08:00:10;98017.55;;;15.56;51.21
78857;BME280;68207;50.078;19.936;2023-04-15T08:02:35;98020.94;;;15.66;51.31
78857;BME280;68207;50.078;19.936;2023-04-15T08:05:01;98019.14;;;15.82;50.95
78857;BME280;68207;50.078;19.936;2023-04-15T08:07:28;98027.68;;;15.96;50.56
78857;BME280;68207;50.078;19.936;2023-04-15T08:09:54;98029.93;;;16.10;49.66
78857;BME280;68207;50.078;19.936;2023-04-15T08:12:19;98029.15;;;16.23;49.26
78857;BME280;68207;50.078;19.936;2023-04-15T08:14:44;98029.80;;;16.37;49.08
78857;BME280;68207;50.078;19.936;2023-04-15T08:17:10;98023.83;;;16.55;49.02
78857;BME280;68207;50.078;19.936;2023-04-15T08:19:36;98026.95;;;16.75;48.52
78857;BME280;68207;50.078;19.936;2023-04-15T08:22:01;98028.11;;;16.94;48.14
78857;BME280;68207;50.078;19.936;2023-04-15T08:24:27;98030.23;;;17.13;47.71
78857;BME280;68207;50.078;19.936;2023-04-15T08:26:52;98037.70;;;17.32;47.21
78857;BME280;68207;50.078;19.936;2023-04-15T08:29:17;98037.90;;;17.45;46.68
78857;BME280;68207;50.078;19.936;2023-04-15T08:31:43;98041.84;;;17.57;45.76
78857;BME280;68207;50.078;19.936;2023-04-15T08:34:10;98037.89;;;17.63;45.01
78857;BME280;68207;50.078;19.936;2023-04-15T08:36:35;98038.23;;;17.67;44.53
78857;BME280;68207;50.078;19.936;2023-04-15T08:39:00;98043.02;;;17.73;44.22
78857;BME280;68207;50.078;19.936;2023-04-15T08:41:26;98040.27;;;17.76;43.65
78857;BME280;68207;50.078;19.936;2023-04-15T08:44:03;98038.04;;;17.80;43.74
78857;BME280;68207;50.078;19.936;2023-04-15T08:46:30;98041.30;;;17.90;43.51
78857;BME280;68207;50.078;19.936;2023-04-15T08:48:57;98040.10;;;18.05;43.02
78857;BME280;68207;50.078;19.936;2023-04-15T08:51:23;98038.64;;;18.21;42.79
78857;BME280;68207;50.078;19.936;2023-04-15T08:53:48;98038.70;;;18.37;42.53
78857;BME280;68207;50.078;19.936;2023-04-15T08:56:14;98042.63;;;18.57;42.11
78857;BME280;68207;50.078;19.936;2023-04-15T08:58:43;98035.59;;;18.75;42.11
78857;BME280;68207;50.078;19.936;2023-04-15T09:01:10;98036.69;;;18.92;41.76
78857;BME280;68207;50.078;19.936;2023-04-15T09:03:36;98037.56;;;19.09;41.84
78857;BME280;68207;50.078;19.936;2023-04-15T09:06:03;98034.02;;;19.31;41.72
78857;BME280;68207;50.078;19.936;2023-04-15T09:08:29;98031.99;;;19.49;40.94
78857;BME280;68207;50.078;19.936;2023-04-15T09:10:55;98027.31;;;19.63;40.49
78857;BME280;68207;50.078;19.936;2023-04-15T09:13:20;98030.42;;;19.89;40.55
78857;BME280;68207;50.078;19.936;2023-04-15T09:15:46;98032.34;;;20.11;40.13
78857;BME280;68207;50.078;19.936;2023-04-15T09:18:11;98030.95;;;20.25;39.50
78857;BME280;68207;50.078;19.936;2023-04-15T09:20:39;98026.05;;;20.33;38.81
78857;BME280;68207;50.078;19.936;2023-04-15T09:23:14;98022.95;;;20.44;38.69
78857;BME280;68207;50.078;19.936;2023-04-15T09:25:40;98019.92;;;20.43;38.24
78857;BME280;68207;50.078;19.936;2023-04-15T09:28:08;98023.50;;;20.40;38.56
78857;BME280;68207;50.078;19.936;2023-04-15T09:30:34;98027.80;;;20.45;39.07
78857;BME280;68207;50.078;19.936;2023-04-15T09:33:01;98023.38;;;20.58;39.24
78857;BME280;68207;50.078;19.936;2023-04-15T09:35:27;98022.54;;;20.63;38.43
78857;BME280;68207;50.078;19.936;2023-04-15T09:38:01;98020.66;;;20.64;37.95
78857;BME280;68207;50.078;19.936;2023-04-15T09:40:31;98024.11;;;20.65;37.71
78857;BME280;68207;50.078;19.936;2023-04-15T09:42:57;98028.41;;;20.62;37.39
78857;BME280;68207;50.078;19.936;2023-04-15T09:45:23;98027.39;;;20.55;37.23
78857;BME280;68207;50.078;19.936;2023-04-15T09:47:48;98028.33;;;20.41;36.86
78857;BME280;68207;50.078;19.936;2023-04-15T09:50:15;98028.34;;;20.27;37.01
78857;BME280;68207;50.078;19.936;2023-04-15T09:52:41;98030.36;;;20.17;37.31
78857;BME280;68207;50.078;19.936;2023-04-15T09:55:07;98035.06;;;20.07;37.06
78857;BME280;68207;50.078;19.936;2023-04-15T09:57:34;98034.95;;;20.01;37.23
78857;BME280;68207;50.078;19.936;2023-04-15T10:00:01;98031.50;;;19.94;37.22
78857;BME280;68207;50.078;19.936;2023-04-15T10:02:27;98030.45;;;19.87;36.86
78857;BME280;68207;50.078;19.936;2023-04-15T10:04:54;98031.27;;;19.82;36.82
78857;BME280;68207;50.078;19.936;2023-04-15T10:07:20;98028.59;;;19.78;37.24
78857;BME280;68207;50.078;19.936;2023-04-15T10:09:47;98025.38;;;19.74;37.70
78857;BME280;68207;50.078;19.936;2023-04-15T10:12:15;98026.46;;;19.69;37.79
78857;BME280;68207;50.078;19.936;2023-04-15T10:14:41;98024.73;;;19.64;37.76
78857;BME280;68207;50.078;19.936;2023-04-15T10:17:12;98020.11;;;19.64;38.06
78857;BME280;68207;50.078;19.936;2023-04-15T10:19:37;98021.98;;;19.67;37.85
78857;BME280;68207;50.078;19.936;2023-04-15T10:22:03;98020.52;;;19.66;37.31
78857;BME280;68207;50.078;19.936;2023-04-15T10:24:32;98016.45;;;19.68;37.70
78857;BME280;68207;50.078;19.936;2023-04-15T10:27:02;98019.58;;;19.80;38.22
78857;BME280;68207;50.078;19.936;2023-04-15T10:29:28;98015.56;;;19.88;38.00
78857;BME280;68207;50.078;19.936;2023-04-15T10:31:54;98011.02;;;20.03;38.19
78857;BME280;68207;50.078;19.936;2023-04-15T10:34:22;98014.05;;;20.29;38.31
78857;BME280;68207;50.078;19.936;2023-04-15T10:36:48;98009.52;;;20.58;37.61
78857;BME280;68207;50.078;19.936;2023-04-15T10:39:38;98013.20;;;20.75;37.11
78857;BME280;68207;50.078;19.936;2023-04-15T10:42:09;98009.85;;;20.86;35.64
78857;BME280;68207;50.078;19.936;2023-04-15T10:44:36;98012.63;;;20.89;35.42
78857;BME280;68207;50.078;19.936;2023-04-15T10:47:06;98012.50;;;20.86;35.23
78857;BME280;68207;50.078;19.936;2023-04-15T10:49:44;98012.34;;;20.84;35.36
78857;BME280;68207;50.078;19.936;2023-04-15T10:52:10;98008.56;;;20.84;35.31
78857;BME280;68207;50.078;19.936;2023-04-15T10:54:35;98009.89;;;20.82;35.13
78857;BME280;68207;50.078;19.936;2023-04-15T10:57:07;98013.08;;;20.73;34.91
78857;BME280;68207;50.078;19.936;2023-04-15T10:59:58;98011.25;;;20.66;34.67
78857;BME280;68207;50.078;19.936;2023-04-15T11:02:43;98011.91;;;20.52;34.72
78857;BME280;68207;50.078;19.936;2023-04-15T11:05:10;98011.40;;;20.39;35.08
78857;BME280;68207;50.078;19.936;2023-04-15T11:07:41;98011.52;;;20.30;35.18
78857;BME280;68207;50.078;19.936;2023-04-15T11:12:37;98008.84;;;20.66;35.81
78857;BME280;68207;50.078;19.936;2023-04-15T11:15:34;98011.77;;;20.90;35.25
78857;BME280;68207;50.078;19.936;2023-04-15T11:18:19;98011.63;;;21.23;35.16
78857;BME280;68207;50.078;19.936;2023-04-15T11:20:51;98013.42;;;21.61;34.88
78857;BME280;68207;50.078;19.936;2023-04-15T11:23:18;98017.45;;;21.83;33.98
78857;BME280;68207;50.078;19.936;2023-04-15T11:25:44;98013.69;;;21.83;33.53
78857;BME280;68207;50.078;19.936;2023-04-15T11:28:10;98011.89;;;21.76;33.89
78857;BME280;68207;50.078;19.936;2023-04-15T11:30:37;98012.88;;;21.64;34.14
78857;BME280;68207;50.078;19.936;2023-04-15T11:33:04;98014.14;;;21.51;34.41
78857;BME280;68207;50.078;19.936;2023-04-15T11:35:30;98016.55;;;21.38;34.40
78857;BME280;68207;50.078;19.936;2023-04-15T11:37:56;98027.10;;;21.36;34.12
78857;BME280;68207;50.078;19.936;2023-04-15T11:40:27;98024.58;;;21.37;33.34
78857;BME280;68207;50.078;19.936;2023-04-15T11:45:34;98024.61;;;21.21;33.04
78857;BME280;68207;50.078;19.936;2023-04-15T11:48:08;98026.40;;;21.13;33.06
78857;BME280;68207;50.078;19.936;2023-04-15T11:50:34;98029.83;;;21.01;33.19
78857;BME280;68207;50.078;19.936;2023-04-15T11:53:02;98023.83;;;20.86;33.22
78857;BME280;68207;50.078;19.936;2023-04-15T11:55:29;98028.52;;;20.70;33.54
78857;BME280;68207;50.078;19.936;2023-04-15T11:58:18;98033.19;;;20.51;33.68
78857;BME280;68207;50.078;19.936;2023-04-15T12:00:50;98034.40;;;20.34;33.59
78857;BME280;68207;50.078;19.936;2023-04-15T12:03:20;98033.77;;;20.21;33.78
78857;BME280;68207;50.078;19.936;2023-04-15T12:06:08;98037.90;;;20.12;34.47
78857;BME280;68207;50.078;19.936;2023-04-15T12:16:30;98032.66;;;19.81;34.88
78857;BME280;68207;50.078;19.936;2023-04-15T12:18:57;98034.45;;;19.71;34.70
78857;BME280;68207;50.078;19.936;2023-04-15T12:21:33;98039.40;;;19.63;34.84
78857;BME280;68207;50.078;19.936;2023-04-15T12:24:08;98039.18;;;19.57;34.45
78857;BME280;68207;50.078;19.936;2023-04-15T12:26:48;98042.45;;;19.51;34.59
78857;BME280;68207;50.078;19.936;2023-04-15T12:29:15;98041.33;;;19.47;35.04
78857;BME280;68207;50.078;19.936;2023-04-15T12:31:52;98040.14;;;19.43;35.09
78857;BME280;68207;50.078;19.936;2023-04-15T12:34:26;98046.92;;;19.41;35.26
78857;BME280;68207;50.078;19.936;2023-04-15T12:36:52;98045.38;;;19.53;35.12
78857;BME280;68207;50.078;19.936;2023-04-15T12:39:20;98046.14;;;19.74;35.13
78857;BME280;68207;50.078;19.936;2023-04-15T12:41:45;98041.48;;;19.92;35.03
78857;BME280;68207;50.078;19.936;2023-04-15T12:44:11;98041.15;;;20.08;35.22
78857;BME280;68207;50.078;19.936;2023-04-15T12:46:36;98043.91;;;20.33;35.34
78857;BME280;68207;50.078;19.936;2023-04-15T12:49:02;98039.75;;;20.58;34.96
78857;BME280;68207;50.078;19.936;2023-04-15T12:51:28;98044.52;;;20.72;34.26
78857;BME280;68207;50.078;19.936;2023-04-15T12:53:53;98046.13;;;20.76;34.06
78857;BME280;68207;50.078;19.936;2023-04-15T12:56:18;98047.96;;;20.78;34.10
78857;BME280;68207;50.078;19.936;2023-04-15T12:58:43;98045.24;;;20.83;33.90
78857;BME280;68207;50.078;19.936;2023-04-15T13:01:09;98042.40;;;20.84;33.65
78857;BME280;68207;50.078;19.936;2023-04-15T13:03:35;98043.33;;;20.86;33.20